createdAt,value
2022-11-25T00:02:16.496Z,4.97
2022-11-25T00:07:18.812Z,6.40
2022-11-25T00:12:20.982Z,8.33
2022-11-25T00:17:23.285Z,6.10
2022-11-25T00:22:25.446Z,6.90
2022-11-25T00:27:27.645Z,3.67
2022-11-25T00:32:29.816Z,5.23
2022-11-25T00:37:32.777Z,4.00
2022-11-25T00:42:53.358Z,5.77
2022-11-25T00:47:55.585Z,4.43
2022-11-25T00:52:57.740Z,4.67
2022-11-25T00:57:59.938Z,4.80
2022-11-25T01:03:02.151Z,6.97
2022-11-25T01:08:04.558Z,4.93
2022-11-25T01:13:06.794Z,5.70
2022-11-25T01:18:11.056Z,5.77
2022-11-25T01:23:13.233Z,5.37
2022-11-25T01:28:15.458Z,5.70
2022-11-25T01:33:17.754Z,6.60
2022-11-25T01:38:19.971Z,6.70
2022-11-25T01:43:22.192Z,8.37
2022-11-25T01:48:45.558Z,9.53
2022-11-25T01:53:50.360Z,6.43
2022-11-25T01:58:52.596Z,9.47
2022-11-25T02:03:56.241Z,8.30
2022-11-25T02:09:18.373Z,11.93
2022-11-25T02:14:21.446Z,8.60
2022-11-25T02:19:43.777Z,8.57
2022-11-25T02:24:47.259Z,9.63
2022-11-25T02:29:50.404Z,8.87
2022-11-25T02:34:52.949Z,10.40
2022-11-25T02:39:55.355Z,7.70
2022-11-25T02:44:57.639Z,9.17
2022-11-25T02:49:59.819Z,12.23
2022-11-25T02:55:02.092Z,7.17
2022-11-25T03:00:05.886Z,10.97
2022-11-25T03:05:08.603Z,9.87
2022-11-25T03:10:11.192Z,8.40
2022-11-25T03:15:14.459Z,7.03
2022-11-25T03:20:16.948Z,10.07
2022-11-25T03:25:19.424Z,12.80
2022-11-25T03:30:26.368Z,11.63
2022-11-25T03:35:32.517Z,7.95
2022-11-25T03:40:34.982Z,14.00
2022-11-25T03:45:37.357Z,12.93
2022-11-25T03:50:43.112Z,15.97
2022-11-25T03:55:48.415Z,13.73
2022-11-25T04:00:53.067Z,14.20
2022-11-25T04:05:55.906Z,13.83
2022-11-25T04:10:58.286Z,10.13
2022-11-25T04:16:04.518Z,10.83
2022-11-25T04:21:06.989Z,15.73
2022-11-25T04:26:09.262Z,12.10
2022-11-25T04:31:15.325Z,15.03
2022-11-25T04:36:19.455Z,12.17
2022-11-25T04:41:21.945Z,15.07
2022-11-25T04:46:25.787Z,14.30
2022-11-25T04:51:30.088Z,11.80
2022-11-25T04:56:36.384Z,11.83
2022-11-25T05:01:38.858Z,13.40
2022-11-25T05:07:07.314Z,11.73
2022-11-25T05:12:13.284Z,11.30
2022-11-25T05:17:18.769Z,10.27
2022-11-25T05:22:24.132Z,8.77
2022-11-25T05:27:27.991Z,11.23
2022-11-25T05:32:33.236Z,15.90
2022-11-25T05:37:38.859Z,12.53
2022-11-25T05:42:42.006Z,11.27
2022-11-25T05:47:44.821Z,8.80
2022-11-25T05:52:50.948Z,12.70
2022-11-25T05:57:53.450Z,9.43
2022-11-25T06:02:56.935Z,9.00
2022-11-25T06:07:59.388Z,13.57
2022-11-25T06:13:02.346Z,11.17
2022-11-25T06:18:04.727Z,13.20
2022-11-25T06:23:09.860Z,10.50
2022-11-25T06:28:13.729Z,9.90
2022-11-25T06:33:20.274Z,8.97
2022-11-25T06:38:23.999Z,11.13
2022-11-25T06:43:26.239Z,10.23
2022-11-25T06:48:28.832Z,9.53
2022-11-25T06:53:32.350Z,14.50
2022-11-25T06:58:36.560Z,14.80
2022-11-25T07:03:39.065Z,15.53
2022-11-25T07:08:42.369Z,9.43
2022-11-25T07:13:45.133Z,9.00
2022-11-25T07:18:47.529Z,11.93
2022-11-25T07:23:50.431Z,13.93
2022-11-25T07:28:53.973Z,9.53
2022-11-25T07:33:58.982Z,8.33
2022-11-25T07:39:04.178Z,10.50
2022-11-25T07:44:07.876Z,10.80
2022-11-25T07:49:25.714Z,22.17
2022-11-25T07:54:28.207Z,15.73
2022-11-25T07:59:30.604Z,8.40
2022-11-25T08:04:32.975Z,14.27
2022-11-25T08:09:36.092Z,9.53
2022-11-25T08:14:38.540Z,11.30
2022-11-25T08:19:40.753Z,7.10
2022-11-25T08:24:42.987Z,10.90
2022-11-25T08:29:45.292Z,9.00
2022-11-25T08:34:47.566Z,11.33
2022-11-25T08:39:53.251Z,10.27
2022-11-25T08:44:56.597Z,8.37
2022-11-25T08:49:58.883Z,7.77
2022-11-25T08:55:01.101Z,10.03
2022-11-25T09:00:06.180Z,9.90
2022-11-25T09:05:08.855Z,9.53
2022-11-25T09:10:15.618Z,9.33
2022-11-25T09:15:17.902Z,14.73
2022-11-25T09:20:20.173Z,13.87
2022-11-25T09:25:22.907Z,8.67
2022-11-25T09:30:25.755Z,10.27
2022-11-25T09:35:28.101Z,7.67
2022-11-25T09:40:40.419Z,16.17
2022-11-25T09:46:06.173Z,10.27
2022-11-25T09:51:20.977Z,11.97
2022-11-25T09:56:33.141Z,11.97
2022-11-25T10:01:44.700Z,10.43
2022-11-25T10:06:55.388Z,9.60
2022-11-25T10:12:11.841Z,8.13
2022-11-25T10:17:27.875Z,8.17
2022-11-25T10:22:52.649Z,10.50
2022-11-25T10:28:15.860Z,11.00
2022-11-25T10:33:51.286Z,8.40
2022-11-25T10:39:15.939Z,8.53
2022-11-25T10:44:29.523Z,7.70
2022-11-25T10:49:40.850Z,9.67
2022-11-25T10:54:59.569Z,8.00
2022-11-25T11:00:04.951Z,6.93
2022-11-25T11:05:10.548Z,9.07
2022-11-25T11:10:21.320Z,13.40
2022-11-25T11:15:24.718Z,9.87
2022-11-25T11:20:31.674Z,11.60
2022-11-25T11:25:36.323Z,8.63
2022-11-25T11:31:11.444Z,8.23
2022-11-25T11:36:32.623Z,7.70
2022-11-25T11:41:41.326Z,7.57
2022-11-25T11:46:55.129Z,8.60
2022-11-25T11:52:26.807Z,15.03
2022-11-25T11:58:15.551Z,12.27
2022-11-25T12:03:22.435Z,8.93
2022-11-25T12:08:50.066Z,7.67
2022-11-25T12:14:01.372Z,8.07
2022-11-25T12:19:12.037Z,5.87
2022-11-25T12:24:17.117Z,8.17
2022-11-25T12:29:37.470Z,7.33
2022-11-25T12:34:44.890Z,5.13
2022-11-25T12:40:04.092Z,7.97
2022-11-25T12:45:12.854Z,8.35
2022-11-25T12:50:18.389Z,8.53
2022-11-25T12:55:25.267Z,9.27
2022-11-25T13:00:46.849Z,7.33
2022-11-25T13:06:17.023Z,8.77
2022-11-25T13:11:37.768Z,5.75
2022-11-25T13:16:42.027Z,7.37
2022-11-25T13:22:24.662Z,8.47
2022-11-25T13:27:36.300Z,6.30
2022-11-25T13:32:40.689Z,7.27
2022-11-25T13:37:45.986Z,7.07
2022-11-25T13:42:48.458Z,6.40
2022-11-25T13:47:52.824Z,7.73
2022-11-25T13:53:06.238Z,5.67
2022-11-25T13:58:11.671Z,7.03
2022-11-25T14:03:23.255Z,4.93
2022-11-25T14:08:50.360Z,5.83
2022-11-25T14:14:16.592Z,4.30
2022-11-25T14:19:52.483Z,5.47
2022-11-25T14:25:00.217Z,6.57
2022-11-25T14:30:06.956Z,5.17
2022-11-25T14:35:20.019Z,6.07
2022-11-25T14:40:27.223Z,4.10
2022-11-25T14:45:33.764Z,4.57
2022-11-25T14:50:37.133Z,6.60
2022-11-25T14:55:40.052Z,4.73
2022-11-25T15:00:58.431Z,4.63
2022-11-25T15:06:06.585Z,3.87
2022-11-25T15:11:18.274Z,6.87
2022-11-25T15:16:23.372Z,4.80
2022-11-25T15:22:07.067Z,5.43
2022-11-25T15:27:03.275Z,5.00
2022-11-25T15:32:05.703Z,5.60
2022-11-25T15:37:11.592Z,6.30
2022-11-25T15:42:23.462Z,6.10
2022-11-25T15:47:30.828Z,8.10
2022-11-25T15:52:38.098Z,5.20
2022-11-25T15:57:41.951Z,4.67
2022-11-25T16:02:44.237Z,5.50
2022-11-25T16:07:52.857Z,5.97
2022-11-25T16:13:23.283Z,5.77
2022-11-25T16:18:42.346Z,4.10
2022-11-25T16:23:48.633Z,5.20
2022-11-25T16:28:54.063Z,6.40
2022-11-25T16:34:01.246Z,4.63
2022-11-25T16:39:04.291Z,5.00
2022-11-25T16:44:18.683Z,4.70
2022-11-25T16:49:22.570Z,7.73
2022-11-25T16:54:24.870Z,6.13
2022-11-25T16:59:34.183Z,6.30
2022-11-25T17:04:36.521Z,5.13
2022-11-25T17:09:39.274Z,6.07
2022-11-25T17:14:42.882Z,4.67
2022-11-25T17:19:46.986Z,7.87
2022-11-25T17:24:51.179Z,3.83
2022-11-25T17:29:54.335Z,6.23
2022-11-25T17:34:58.888Z,7.23
2022-11-25T17:40:01.387Z,3.10
2022-11-25T17:45:14.250Z,5.70
2022-11-25T17:50:26.033Z,4.00
2022-11-25T17:55:28.500Z,3.80
2022-11-25T18:00:35.861Z,6.07
2022-11-25T18:05:38.211Z,5.60
2022-11-25T18:10:40.569Z,9.83
2022-11-25T18:15:44.382Z,5.23
2022-11-25T18:20:46.943Z,3.87
2022-11-25T18:25:49.356Z,4.10
2022-11-25T18:30:54.578Z,5.87
2022-11-25T18:35:57.088Z,7.30
2022-11-25T18:41:00.898Z,4.13
2022-11-25T18:46:03.343Z,6.20
2022-11-25T18:51:06.341Z,4.83
2022-11-25T18:56:17.431Z,5.77
2022-11-25T19:01:23.239Z,5.53
2022-11-25T19:06:28.330Z,3.77
2022-11-25T19:11:39.032Z,6.33
2022-11-25T19:16:41.926Z,5.20
2022-11-25T19:21:44.239Z,6.03
2022-11-25T19:26:51.269Z,4.53
2022-11-25T19:31:54.379Z,5.23
2022-11-25T19:36:56.694Z,3.73
2022-11-25T19:41:59.035Z,4.03
2022-11-25T19:47:15.380Z,3.20
2022-11-25T19:52:23.185Z,5.20
2022-11-25T19:57:26.033Z,5.13
2022-11-25T20:02:29.604Z,8.27
2022-11-25T20:07:32.510Z,5.67
2022-11-25T20:12:34.974Z,6.33
2022-11-25T20:17:37.879Z,5.37
2022-11-25T20:22:44.394Z,4.83
2022-11-25T20:27:46.869Z,5.93
2022-11-25T20:32:49.444Z,5.50
2022-11-25T20:37:54.067Z,6.87
2022-11-25T20:42:58.191Z,4.23
2022-11-25T20:48:00.521Z,5.07
2022-11-25T20:53:03.499Z,7.67
2022-11-25T20:58:24.616Z,5.17
2022-11-25T21:03:27.345Z,5.87
2022-11-25T21:08:31.069Z,3.20
2022-11-25T21:13:33.393Z,6.60
2022-11-25T21:18:35.765Z,3.83
2022-11-25T21:23:38.326Z,4.27
2022-11-25T21:28:43.201Z,4.60
2022-11-25T21:33:46.612Z,5.27
2022-11-25T21:38:50.923Z,4.47
2022-11-25T21:43:53.194Z,8.10
2022-11-25T21:48:55.438Z,6.03
2022-11-25T21:53:57.687Z,5.40
2022-11-25T21:59:01.170Z,5.40
2022-11-25T22:04:03.516Z,5.93
2022-11-25T22:09:05.803Z,5.77
2022-11-25T22:14:37.363Z,4.90
2022-11-25T22:19:39.888Z,9.13
2022-11-25T22:24:42.423Z,10.43
2022-11-25T22:29:44.882Z,5.70
2022-11-25T22:34:47.121Z,7.73
2022-11-25T22:39:49.590Z,7.37
2022-11-25T22:44:52.534Z,8.73
2022-11-25T22:49:54.890Z,6.90
2022-11-25T22:55:15.124Z,6.00
2022-11-25T23:00:29.702Z,8.70
2022-11-25T23:05:34.476Z,10.33
2022-11-25T23:10:36.727Z,9.00
2022-11-25T23:15:42.058Z,6.70
2022-11-25T23:20:44.463Z,9.00
2022-11-25T23:25:47.652Z,6.93
2022-11-25T23:30:55.371Z,6.50
2022-11-25T23:35:59.133Z,7.30
2022-11-25T23:41:01.390Z,10.73
2022-11-25T23:46:03.883Z,9.13
2022-11-25T23:51:06.827Z,5.60
2022-11-25T23:56:09.034Z,7.43
